createdAt,value
2022-08-17T00:00:42.958Z,3.75
2022-08-17T00:01:26.218Z,3.78
2022-08-17T00:02:01.485Z,3.30
2022-08-17T00:03:02.959Z,4.00
2022-08-17T00:03:38.362Z,3.42
2022-08-17T00:04:11.910Z,3.63
2022-08-17T00:04:47.070Z,3.40
2022-08-17T00:05:22.777Z,3.60
2022-08-17T00:05:57.548Z,3.22
2022-08-17T00:06:29.927Z,3.72
2022-08-17T00:07:01.964Z,3.50
2022-08-17T00:07:33.986Z,3.75
2022-08-17T00:08:06.285Z,3.60
2022-08-17T00:08:39.715Z,3.95
2022-08-17T00:09:11.791Z,4.00
2022-08-17T00:09:50.579Z,3.53
2022-08-17T00:10:23.078Z,3.60
2022-08-17T00:10:55.422Z,3.60
2022-08-17T00:11:29.456Z,3.67
2022-08-17T00:12:43.115Z,3.60
2022-08-17T00:12:54.444Z,3.30
2022-08-17T00:13:32.443Z,3.33
2022-08-17T00:14:07.148Z,3.38
2022-08-17T00:14:39.975Z,3.80
2022-08-17T00:15:13.388Z,3.47
2022-08-17T00:15:45.777Z,3.47
2022-08-17T00:16:20.656Z,3.55
2022-08-17T00:17:12.665Z,3.63
2022-08-17T00:17:46.668Z,3.60
2022-08-17T00:19:02.200Z,3.83
2022-08-17T00:19:13.472Z,3.42
2022-08-17T00:19:45.505Z,3.47
2022-08-17T00:20:18.497Z,3.80
2022-08-17T00:20:55.834Z,4.15
2022-08-17T00:22:29.849Z,3.88
2022-08-17T00:22:32.942Z,3.90
2022-08-17T00:23:13.278Z,3.53
2022-08-17T00:23:49.168Z,3.70
2022-08-17T00:24:22.083Z,3.70
2022-08-17T00:24:54.125Z,3.88
2022-08-17T00:25:26.367Z,3.50
2022-08-17T00:25:58.647Z,3.70
2022-08-17T00:26:44.198Z,3.95
2022-08-17T00:27:17.778Z,4.10
2022-08-17T00:27:49.791Z,3.55
2022-08-17T00:28:21.837Z,3.85
2022-08-17T00:28:54.559Z,3.70
2022-08-17T00:29:26.550Z,3.63
2022-08-17T00:29:58.604Z,3.22
2022-08-17T00:30:30.664Z,3.38
2022-08-17T00:31:23.322Z,3.60
2022-08-17T00:31:55.381Z,3.65
2022-08-17T00:33:16.082Z,3.58
2022-08-17T00:33:20.874Z,3.63
2022-08-17T00:33:52.990Z,3.60
2022-08-17T00:34:25.302Z,3.53
2022-08-17T00:34:59.956Z,3.90
2022-08-17T00:35:31.949Z,3.72
2022-08-17T00:36:06.016Z,3.92
2022-08-17T00:36:38.047Z,3.63
2022-08-17T00:37:10.067Z,3.72
2022-08-17T00:37:42.261Z,3.60
2022-08-17T00:38:14.833Z,3.70
2022-08-17T00:38:46.950Z,3.90
2022-08-17T00:39:19.002Z,3.30
2022-08-17T00:39:51.020Z,3.95
2022-08-17T00:40:24.749Z,3.80
2022-08-17T00:41:02.033Z,3.40
2022-08-17T00:41:35.789Z,3.85
2022-08-17T00:42:15.032Z,3.58
2022-08-17T00:42:47.815Z,3.95
2022-08-17T00:43:40.331Z,3.20
2022-08-17T00:44:12.599Z,3.63
2022-08-17T00:44:45.492Z,3.70
2022-08-17T00:45:18.289Z,3.85
2022-08-17T00:45:50.332Z,3.80
2022-08-17T00:46:28.952Z,3.75
2022-08-17T00:47:00.952Z,3.70
2022-08-17T00:47:32.976Z,3.88
2022-08-17T00:48:05.000Z,3.58
2022-08-17T00:48:44.099Z,3.75
2022-08-17T00:49:19.318Z,4.03
2022-08-17T00:49:51.779Z,3.70
2022-08-17T00:50:23.835Z,3.53
2022-08-17T00:50:57.921Z,3.67
2022-08-17T00:51:35.060Z,3.50
2022-08-17T00:52:15.387Z,3.65
2022-08-17T00:52:52.563Z,4.22
2022-08-17T00:53:26.698Z,3.65
2022-08-17T00:54:10.823Z,3.63
2022-08-17T00:54:44.982Z,3.42
2022-08-17T00:55:17.510Z,3.75
2022-08-17T00:55:49.556Z,3.80
2022-08-17T00:56:23.947Z,3.90
2022-08-17T00:57:00.704Z,3.63
2022-08-17T00:57:39.011Z,3.60
2022-08-17T00:58:11.008Z,3.85
2022-08-17T00:58:43.135Z,4.00
2022-08-17T00:59:17.698Z,3.80
2022-08-17T01:00:02.612Z,3.60
2022-08-17T01:00:37.886Z,3.60
2022-08-17T01:01:10.621Z,3.78
2022-08-17T01:01:42.865Z,3.50
2022-08-17T01:02:15.573Z,3.40
2022-08-17T01:02:48.006Z,3.42
2022-08-17T01:03:22.880Z,3.75
2022-08-17T01:03:57.035Z,3.65
2022-08-17T01:04:32.857Z,3.50
2022-08-17T01:05:05.097Z,3.53
2022-08-17T01:05:42.387Z,3.35
2022-08-17T01:06:14.809Z,3.35
2022-08-17T01:06:49.466Z,3.60
2022-08-17T01:07:23.380Z,4.03
2022-08-17T01:07:55.700Z,3.20
2022-08-17T01:08:29.258Z,3.63
2022-08-17T01:09:01.742Z,3.42
2022-08-17T01:09:34.008Z,3.80
2022-08-17T01:10:07.617Z,3.53
2022-08-17T01:11:04.102Z,4.35
2022-08-17T01:11:40.562Z,3.72
2022-08-17T01:12:12.722Z,3.63
2022-08-17T01:12:44.740Z,3.85
2022-08-17T01:13:17.137Z,3.53
2022-08-17T01:13:49.179Z,3.67
2022-08-17T01:14:22.298Z,3.40
2022-08-17T01:14:54.286Z,3.60
2022-08-17T01:15:26.323Z,3.40
2022-08-17T01:16:01.174Z,3.33
2022-08-17T01:16:33.459Z,3.67
2022-08-17T01:17:06.185Z,3.60
2022-08-17T01:17:38.347Z,3.53
2022-08-17T01:18:11.606Z,3.75
2022-08-17T01:18:44.859Z,3.50
2022-08-17T01:19:20.160Z,3.13
2022-08-17T01:19:52.184Z,3.90
2022-08-17T01:20:24.164Z,3.50
2022-08-17T01:20:57.670Z,3.20
2022-08-17T01:21:32.625Z,3.88
2022-08-17T01:22:07.662Z,3.53
2022-08-17T01:22:39.815Z,3.75
2022-08-17T01:23:11.829Z,3.40
2022-08-17T01:23:50.598Z,3.92
2022-08-17T01:24:22.730Z,3.58
2022-08-17T01:24:59.120Z,3.30
2022-08-17T01:25:31.184Z,3.60
2022-08-17T01:26:06.036Z,3.70
2022-08-17T01:26:39.203Z,3.58
2022-08-17T01:27:13.368Z,3.53
2022-08-17T01:27:45.587Z,3.42
2022-08-17T01:28:52.716Z,3.50
2022-08-17T01:29:10.167Z,3.35
2022-08-17T01:29:45.372Z,3.80
2022-08-17T01:30:56.894Z,3.70
2022-08-17T01:31:09.852Z,3.92
2022-08-17T01:31:45.438Z,3.25
2022-08-17T01:32:18.890Z,3.40
2022-08-17T01:32:51.607Z,3.78
2022-08-17T01:33:23.724Z,3.22
2022-08-17T01:33:57.886Z,3.70
2022-08-17T01:34:36.875Z,3.65
2022-08-17T01:35:15.711Z,3.83
2022-08-17T01:35:47.800Z,3.38
2022-08-17T01:36:20.233Z,3.47
2022-08-17T01:36:52.876Z,3.63
2022-08-17T01:37:32.198Z,3.40
2022-08-17T01:38:05.106Z,3.83
2022-08-17T01:38:38.697Z,3.80
2022-08-17T01:39:15.589Z,4.00
2022-08-17T01:39:50.090Z,3.30
2022-08-17T01:40:22.514Z,3.53
2022-08-17T01:40:57.970Z,3.85
2022-08-17T01:41:30.181Z,3.90
2022-08-17T01:42:07.083Z,3.15
2022-08-17T01:42:45.230Z,4.07
2022-08-17T01:43:22.797Z,3.45
2022-08-17T01:43:57.329Z,3.65
2022-08-17T01:44:29.394Z,3.97
2022-08-17T01:45:17.805Z,3.40
2022-08-17T01:46:03.288Z,3.42
2022-08-17T01:46:36.952Z,3.65
2022-08-17T01:47:09.000Z,3.63
2022-08-17T01:47:41.738Z,3.40
2022-08-17T01:48:13.951Z,3.40
2022-08-17T01:48:47.523Z,3.70
2022-08-17T01:49:19.734Z,3.63
2022-08-17T01:49:51.709Z,3.70
2022-08-17T01:50:25.602Z,3.20
2022-08-17T01:50:57.758Z,4.00
2022-08-17T01:51:32.843Z,3.63
2022-08-17T01:52:07.068Z,3.50
2022-08-17T01:52:39.356Z,3.33
2022-08-17T01:53:13.336Z,3.65
2022-08-17T01:53:50.235Z,3.42
2022-08-17T01:54:22.843Z,3.70
2022-08-17T01:54:55.233Z,3.75
2022-08-17T01:55:30.904Z,3.70
2022-08-17T01:56:06.737Z,3.50
2022-08-17T01:56:40.685Z,3.70
2022-08-17T01:57:13.348Z,3.60
2022-08-17T01:57:48.257Z,4.28
2022-08-17T01:58:20.394Z,3.72
2022-08-17T01:58:52.544Z,3.45
2022-08-17T01:59:24.871Z,3.58
2022-08-17T01:59:56.945Z,3.70
2022-08-17T02:01:00.054Z,3.90
2022-08-17T02:01:23.494Z,3.10
2022-08-17T02:01:55.505Z,3.67
2022-08-17T02:02:30.997Z,4.30
2022-08-17T02:03:04.435Z,3.60
2022-08-17T02:03:37.278Z,3.42
2022-08-17T02:04:09.373Z,3.63
2022-08-17T02:04:41.345Z,3.58
2022-08-17T02:05:13.834Z,3.38
2022-08-17T02:05:48.044Z,3.58
2022-08-17T02:06:27.182Z,3.70
2022-08-17T02:07:00.527Z,3.95
2022-08-17T02:07:32.585Z,3.58
2022-08-17T02:08:39.340Z,3.40
2022-08-17T02:09:17.271Z,3.80
2022-08-17T02:09:52.729Z,3.75
2022-08-17T02:10:24.906Z,3.90
2022-08-17T02:11:11.980Z,3.72
2022-08-17T02:11:44.151Z,3.67
2022-08-17T02:12:38.324Z,3.78
2022-08-17T02:13:09.618Z,3.75
2022-08-17T02:13:41.963Z,3.63
2022-08-17T02:14:14.085Z,3.60
2022-08-17T02:14:46.335Z,3.38
2022-08-17T02:15:19.567Z,3.65
2022-08-17T02:15:51.653Z,3.72
2022-08-17T02:16:23.695Z,3.58
2022-08-17T02:16:56.172Z,3.65
2022-08-17T02:17:28.204Z,3.78
2022-08-17T02:18:01.442Z,3.50
2022-08-17T02:18:33.659Z,4.07
2022-08-17T02:19:07.075Z,3.70
2022-08-17T02:19:39.104Z,3.45
2022-08-17T02:20:11.259Z,3.47
2022-08-17T02:20:43.317Z,4.00
2022-08-17T02:21:15.324Z,3.72
2022-08-17T02:21:48.535Z,3.58
2022-08-17T02:22:20.618Z,3.70
2022-08-17T02:22:52.697Z,3.30
2022-08-17T02:23:26.291Z,3.90
2022-08-17T02:23:58.509Z,3.47
2022-08-17T02:24:58.202Z,3.70
2022-08-17T02:25:24.611Z,3.97
2022-08-17T02:25:57.991Z,3.97
2022-08-17T02:26:29.998Z,3.63
2022-08-17T02:27:01.998Z,4.10
2022-08-17T02:27:34.121Z,3.67
2022-08-17T02:28:06.219Z,3.92
2022-08-17T02:28:38.276Z,3.60
2022-08-17T02:29:10.317Z,4.20
2022-08-17T02:29:42.311Z,3.83
2022-08-17T02:30:58.966Z,3.67
2022-08-17T02:31:09.564Z,3.83
2022-08-17T02:31:42.294Z,3.63
2022-08-17T02:32:27.355Z,3.60
2022-08-17T02:33:00.469Z,4.07
2022-08-17T02:33:41.923Z,3.72
2022-08-17T02:34:15.713Z,3.72
2022-08-17T02:34:47.788Z,3.85
2022-08-17T02:35:21.737Z,4.13
2022-08-17T02:35:54.312Z,3.72
2022-08-17T02:36:27.534Z,3.33
2022-08-17T02:36:59.679Z,3.42
2022-08-17T02:37:32.004Z,3.65
2022-08-17T02:38:05.178Z,3.65
2022-08-17T02:38:39.926Z,3.80
2022-08-17T02:39:12.744Z,3.80
2022-08-17T02:39:45.683Z,3.80
2022-08-17T02:40:18.004Z,3.90
2022-08-17T02:41:09.496Z,3.97
2022-08-17T02:41:41.523Z,3.92
2022-08-17T02:42:14.201Z,4.15
2022-08-17T02:42:46.279Z,3.92
2022-08-17T02:43:18.248Z,3.70
2022-08-17T02:43:50.287Z,3.75
2022-08-17T02:44:39.326Z,3.72
2022-08-17T02:45:20.193Z,3.75
2022-08-17T02:45:52.259Z,3.78
2022-08-17T02:46:24.691Z,3.50
2022-08-17T02:46:56.889Z,3.88
2022-08-17T02:47:28.941Z,3.97
2022-08-17T02:48:00.999Z,3.88
2022-08-17T02:48:33.033Z,3.50
2022-08-17T02:49:05.163Z,3.92
2022-08-17T02:49:37.731Z,4.00
2022-08-17T02:50:11.546Z,3.85
2022-08-17T02:50:43.552Z,3.85
2022-08-17T02:51:15.751Z,4.05
2022-08-17T02:51:49.561Z,3.42
2022-08-17T02:52:42.927Z,4.45
2022-08-17T02:53:13.595Z,3.60
2022-08-17T02:53:46.714Z,4.00
2022-08-17T02:54:40.538Z,3.58
2022-08-17T02:55:12.846Z,4.00
2022-08-17T02:55:44.972Z,3.70
2022-08-17T02:56:17.109Z,3.70
2022-08-17T02:56:49.087Z,3.78
2022-08-17T02:57:21.108Z,3.67
2022-08-17T02:57:53.257Z,3.60
2022-08-17T02:58:34.550Z,3.90
2022-08-17T02:59:07.740Z,3.72
2022-08-17T02:59:45.430Z,3.80
2022-08-17T03:00:22.601Z,3.78
2022-08-17T03:00:54.713Z,3.60
2022-08-17T03:01:29.350Z,3.65
2022-08-17T03:02:02.866Z,3.75
2022-08-17T03:02:38.093Z,3.72
2022-08-17T03:03:11.123Z,3.75
2022-08-17T03:03:43.287Z,3.70
2022-08-17T03:04:15.332Z,3.92
2022-08-17T03:04:47.353Z,3.92
2022-08-17T03:05:20.776Z,3.90
2022-08-17T03:05:53.264Z,3.72
2022-08-17T03:06:25.329Z,3.63
2022-08-17T03:06:57.360Z,3.60
2022-08-17T03:07:30.970Z,3.85
2022-08-17T03:08:03.307Z,3.88
2022-08-17T03:08:35.398Z,4.28
2022-08-17T03:09:07.434Z,3.83
2022-08-17T03:09:39.423Z,3.67
2022-08-17T03:10:11.949Z,3.80
2022-08-17T03:10:44.877Z,3.83
2022-08-17T03:11:16.848Z,3.75
2022-08-17T03:11:50.800Z,3.70
2022-08-17T03:12:28.218Z,3.90
2022-08-17T03:13:00.501Z,4.68
2022-08-17T03:13:32.572Z,3.55
2022-08-17T03:14:04.589Z,3.78
2022-08-17T03:14:41.257Z,3.88
2022-08-17T03:15:18.420Z,3.65
2022-08-17T03:15:50.656Z,3.85
2022-08-17T03:16:22.717Z,4.05
2022-08-17T03:16:54.712Z,3.90
2022-08-17T03:17:26.719Z,3.92
2022-08-17T03:17:59.784Z,9.13
2022-08-17T03:18:31.786Z,9.73
2022-08-17T03:19:03.820Z,11.85
2022-08-17T03:19:35.808Z,13.27
2022-08-17T03:20:12.614Z,14.48
2022-08-17T03:20:44.647Z,15.13
2022-08-17T03:21:16.684Z,16.27
2022-08-17T03:21:54.878Z,15.25
2022-08-17T03:22:37.337Z,16.45
2022-08-17T03:23:10.452Z,16.40
2022-08-17T03:23:43.002Z,16.15
2022-08-17T03:24:15.266Z,16.42
2022-08-17T03:24:50.161Z,15.55
2022-08-17T03:25:26.736Z,18.40
2022-08-17T03:25:59.037Z,19.58
2022-08-17T03:26:32.352Z,18.25
2022-08-17T03:27:04.531Z,18.33
2022-08-17T03:27:36.746Z,18.10
2022-08-17T03:28:14.691Z,16.98
2022-08-17T03:28:46.721Z,16.90
2022-08-17T03:29:19.335Z,16.83
2022-08-17T03:29:51.324Z,17.75
2022-08-17T03:30:24.090Z,16.33
2022-08-17T03:30:56.187Z,16.13
2022-08-17T03:31:28.317Z,15.82
2022-08-17T03:32:02.081Z,17.55
2022-08-17T03:32:44.885Z,17.45
2022-08-17T03:33:17.075Z,18.25
2022-08-17T03:33:49.135Z,17.77
2022-08-17T03:34:21.322Z,18.40
2022-08-17T03:34:57.436Z,18.63
2022-08-17T03:35:30.923Z,20.15
2022-08-17T03:36:03.070Z,19.55
2022-08-17T03:36:36.118Z,19.70
2022-08-17T03:37:08.450Z,18.88
2022-08-17T03:37:40.586Z,19.55
2022-08-17T03:38:12.764Z,20.17
2022-08-17T03:38:47.808Z,20.50
2022-08-17T03:39:19.808Z,20.15
2022-08-17T03:39:51.811Z,19.80
2022-08-17T03:40:34.650Z,19.33
2022-08-17T03:41:16.199Z,20.98
2022-08-17T03:41:48.194Z,21.48
2022-08-17T03:42:31.585Z,22.42
2022-08-17T03:43:09.216Z,21.55
2022-08-17T03:43:41.226Z,21.33
2022-08-17T03:44:13.234Z,22.40
2022-08-17T03:44:49.115Z,21.42
2022-08-17T03:45:42.600Z,21.55
2022-08-17T03:46:34.734Z,22.42
2022-08-17T03:47:26.180Z,21.73
2022-08-17T03:48:16.951Z,23.13
2022-08-17T03:49:07.901Z,23.17
2022-08-17T03:49:58.634Z,24.38
2022-08-17T03:50:49.268Z,23.80
2022-08-17T03:51:54.356Z,24.90
2022-08-17T03:52:45.295Z,23.40
2022-08-17T03:53:42.358Z,24.13
2022-08-17T03:54:32.824Z,24.42
2022-08-17T03:55:35.879Z,25.13
2022-08-17T03:56:27.189Z,25.20
2022-08-17T03:57:07.259Z,24.85
2022-08-17T03:57:39.994Z,24.15
2022-08-17T03:58:12.040Z,25.42
2022-08-17T03:58:44.137Z,25.48
2022-08-17T03:59:22.205Z,25.67
2022-08-17T03:59:55.159Z,26.02
2022-08-17T04:00:27.651Z,25.95
2022-08-17T04:00:59.821Z,27.13
2022-08-17T04:01:32.096Z,27.13
2022-08-17T04:02:08.990Z,27.05
2022-08-17T04:02:42.273Z,29.73
2022-08-17T04:03:14.708Z,28.15
2022-08-17T04:03:46.746Z,29.60
2022-08-17T04:04:19.256Z,28.85
2022-08-17T04:05:00.233Z,30.38
2022-08-17T04:05:32.273Z,33.00
2022-08-17T04:06:06.827Z,31.05
2022-08-17T04:06:39.219Z,30.65
2022-08-17T04:07:11.277Z,32.40
2022-08-17T04:07:43.518Z,32.75
2022-08-17T04:08:15.596Z,32.83
2022-08-17T04:08:47.585Z,32.83
2022-08-17T04:09:19.563Z,33.03
2022-08-17T04:09:51.632Z,32.42
2022-08-17T04:10:26.384Z,31.25
2022-08-17T04:10:58.590Z,34.95
2022-08-17T04:11:30.565Z,37.65
2022-08-17T04:12:04.750Z,37.88
2022-08-17T04:12:45.289Z,40.05
2022-08-17T04:13:24.841Z,39.78
2022-08-17T04:13:57.764Z,39.90
2022-08-17T04:14:33.808Z,40.25
2022-08-17T04:15:06.661Z,38.03
2022-08-17T04:15:38.649Z,39.13
2022-08-17T04:16:10.636Z,36.75
2022-08-17T04:16:43.157Z,34.22
2022-08-17T04:17:15.417Z,35.55
2022-08-17T04:17:47.672Z,34.83
2022-08-17T04:18:19.945Z,35.25
2022-08-17T04:18:52.582Z,40.03
2022-08-17T04:19:24.559Z,40.15
2022-08-17T04:19:57.252Z,40.13
2022-08-17T04:20:29.455Z,39.35
2022-08-17T04:21:01.574Z,40.55
2022-08-17T04:21:34.426Z,39.53
2022-08-17T04:22:06.643Z,40.78
2022-08-17T04:22:38.693Z,38.50
2022-08-17T04:23:15.336Z,36.65
2022-08-17T04:23:47.554Z,37.15
2022-08-17T04:24:19.543Z,35.70
2022-08-17T04:24:51.526Z,37.40
2022-08-17T04:25:23.748Z,40.35
2022-08-17T04:25:55.778Z,40.88
2022-08-17T04:26:53.300Z,41.80
2022-08-17T04:27:20.464Z,39.70
2022-08-17T04:27:52.473Z,37.88
2022-08-17T04:28:24.562Z,36.35
2022-08-17T04:28:58.476Z,35.92
2022-08-17T04:29:55.098Z,34.83
2022-08-17T04:30:22.776Z,37.03
2022-08-17T04:30:54.808Z,36.70
2022-08-17T04:31:27.085Z,37.35
2022-08-17T04:31:59.142Z,37.05
2022-08-17T04:33:04.099Z,37.40
2022-08-17T04:33:24.674Z,39.80
2022-08-17T04:33:56.704Z,40.42
2022-08-17T04:34:28.679Z,39.80
2022-08-17T04:35:00.945Z,40.25
2022-08-17T04:35:34.484Z,40.08
2022-08-17T04:36:07.578Z,40.67
2022-08-17T04:36:39.600Z,40.75
2022-08-17T04:37:11.573Z,41.25
2022-08-17T04:37:44.995Z,41.17
2022-08-17T04:38:18.398Z,42.88
2022-08-17T04:38:50.479Z,41.72
2022-08-17T04:39:24.998Z,44.38
2022-08-17T04:40:15.862Z,43.33
2022-08-17T04:41:06.408Z,41.92
2022-08-17T04:41:57.251Z,43.92
2022-08-17T04:42:29.223Z,44.40
2022-08-17T04:43:02.595Z,43.22
2022-08-17T04:43:35.249Z,43.60
2022-08-17T04:44:07.269Z,45.67
2022-08-17T04:44:39.244Z,44.38
2022-08-17T04:45:11.348Z,46.00
2022-08-17T04:45:55.671Z,45.33
2022-08-17T04:46:32.888Z,44.63
2022-08-17T04:47:05.542Z,45.63
2022-08-17T04:47:37.694Z,44.08
2022-08-17T04:48:10.178Z,43.80
2022-08-17T04:48:43.355Z,43.55
2022-08-17T04:49:15.408Z,44.65
2022-08-17T04:49:47.520Z,44.95
2022-08-17T04:50:21.596Z,44.92
2022-08-17T04:50:53.671Z,45.10
2022-08-17T04:51:28.003Z,44.15
2022-08-17T04:52:04.245Z,46.33
2022-08-17T04:52:45.021Z,46.28
2022-08-17T04:53:18.346Z,45.30
2022-08-17T04:53:54.894Z,45.55
2022-08-17T04:54:27.200Z,44.13
2022-08-17T04:55:02.614Z,43.30
2022-08-17T04:55:34.607Z,42.03
2022-08-17T04:56:06.776Z,43.40
2022-08-17T04:56:39.448Z,44.10
2022-08-17T04:57:11.468Z,41.10
2022-08-17T04:57:45.252Z,44.10
2022-08-17T04:58:17.364Z,43.20
2022-08-17T04:58:50.312Z,42.47
2022-08-17T04:59:22.877Z,42.55
2022-08-17T04:59:54.868Z,39.92
2022-08-17T05:00:27.308Z,39.45
2022-08-17T05:00:59.440Z,40.50
2022-08-17T05:01:32.568Z,41.50
2022-08-17T05:02:04.704Z,42.30
2022-08-17T05:02:44.982Z,42.53
2022-08-17T05:03:22.449Z,41.45
2022-08-17T05:03:56.281Z,42.15
2022-08-17T05:04:34.539Z,42.47
2022-08-17T05:05:07.556Z,41.85
2022-08-17T05:05:43.109Z,42.20
2022-08-17T05:06:15.216Z,42.83
2022-08-17T05:06:47.684Z,43.20
2022-08-17T05:07:23.496Z,42.22
2022-08-17T05:07:58.007Z,41.83
2022-08-17T05:08:30.005Z,43.00
2022-08-17T05:09:02.569Z,43.38
2022-08-17T05:09:34.577Z,40.28
2022-08-17T05:10:06.880Z,39.85
2022-08-17T05:10:45.177Z,40.80
2022-08-17T05:11:17.735Z,38.40
2022-08-17T05:11:49.800Z,40.92
2022-08-17T05:12:21.817Z,39.70
2022-08-17T05:13:00.546Z,39.70
2022-08-17T05:13:32.675Z,40.38
2022-08-17T05:14:04.808Z,40.15
2022-08-17T05:14:38.753Z,39.33
2022-08-17T05:15:11.802Z,40.08
2022-08-17T05:15:44.939Z,39.78
2022-08-17T05:16:17.998Z,40.28
2022-08-17T05:16:51.132Z,38.25
2022-08-17T05:17:23.683Z,37.28
2022-08-17T05:17:56.331Z,37.22
2022-08-17T05:18:28.960Z,36.22
2022-08-17T05:19:02.544Z,37.40
2022-08-17T05:19:34.522Z,36.03
2022-08-17T05:20:09.579Z,35.33
2022-08-17T05:20:41.718Z,33.67
2022-08-17T05:21:14.616Z,34.40
2022-08-17T05:21:46.592Z,33.75
2022-08-17T05:22:18.556Z,33.78
2022-08-17T05:22:51.965Z,33.78
2022-08-17T05:23:25.736Z,35.22
2022-08-17T05:23:58.571Z,33.13
2022-08-17T05:24:40.795Z,32.80
2022-08-17T05:25:25.782Z,31.90
2022-08-17T05:25:59.044Z,34.20
2022-08-17T05:26:31.109Z,29.70
2022-08-17T05:27:06.108Z,31.98
2022-08-17T05:27:38.802Z,33.70
2022-08-17T05:28:13.482Z,32.22
2022-08-17T05:28:45.472Z,32.53
2022-08-17T05:29:18.794Z,33.03
2022-08-17T05:29:50.812Z,30.85
2022-08-17T05:30:23.841Z,31.08
2022-08-17T05:30:57.229Z,32.25
2022-08-17T05:31:30.305Z,32.53
2022-08-17T05:32:38.839Z,30.10
2022-08-17T05:33:01.533Z,29.70
2022-08-17T05:33:39.568Z,29.45
2022-08-17T05:34:13.520Z,31.25
2022-08-17T05:34:45.531Z,31.50
2022-08-17T05:35:17.535Z,32.22
2022-08-17T05:35:50.735Z,31.60
2022-08-17T05:36:42.603Z,29.20
2022-08-17T05:37:14.805Z,28.55
2022-08-17T05:37:46.821Z,30.35
2022-08-17T05:38:20.179Z,27.25
2022-08-17T05:38:52.249Z,29.90
2022-08-17T05:39:24.317Z,30.30
2022-08-17T05:39:56.476Z,31.13
2022-08-17T05:40:32.626Z,31.10
2022-08-17T05:41:06.550Z,28.65
2022-08-17T05:41:39.153Z,29.63
2022-08-17T05:42:11.144Z,27.13
2022-08-17T05:42:43.562Z,27.42
2022-08-17T05:43:17.512Z,29.15
2022-08-17T05:43:54.324Z,29.30
2022-08-17T05:44:28.192Z,28.80
2022-08-17T05:45:00.496Z,27.60
2022-08-17T05:45:55.727Z,29.30
2022-08-17T05:46:29.220Z,28.20
2022-08-17T05:47:01.599Z,28.75
2022-08-17T05:47:33.685Z,26.83
2022-08-17T05:48:07.269Z,28.15
2022-08-17T05:48:42.062Z,30.05
2022-08-17T05:49:14.756Z,25.55
2022-08-17T05:49:49.084Z,28.38
2022-08-17T05:50:26.068Z,27.35
2022-08-17T05:51:01.867Z,24.50
2022-08-17T05:51:37.450Z,27.02
2022-08-17T05:52:09.422Z,25.70
2022-08-17T05:52:54.768Z,23.80
2022-08-17T05:53:29.773Z,25.00
2022-08-17T05:54:11.947Z,23.33
2022-08-17T05:54:43.940Z,23.75
2022-08-17T05:55:31.304Z,23.65
2022-08-17T05:56:27.947Z,25.45
2022-08-17T05:57:31.760Z,23.73
2022-08-17T05:58:10.892Z,23.13
2022-08-17T05:58:45.837Z,23.50
2022-08-17T05:59:20.788Z,21.98
2022-08-17T06:00:10.401Z,23.90
2022-08-17T06:00:58.141Z,23.10
2022-08-17T06:01:43.801Z,23.05
2022-08-17T06:02:15.764Z,21.13
2022-08-17T06:03:06.169Z,22.08
2022-08-17T06:04:16.789Z,20.30
2022-08-17T06:04:48.770Z,22.50
2022-08-17T06:05:38.050Z,21.20
2022-08-17T06:06:31.580Z,20.55
2022-08-17T06:07:09.743Z,20.17
2022-08-17T06:07:49.713Z,21.23
2022-08-17T06:08:32.329Z,20.42
2022-08-17T06:09:18.735Z,21.50
2022-08-17T06:10:02.969Z,21.38
2022-08-17T06:10:43.970Z,21.60
2022-08-17T06:11:28.133Z,20.48
2022-08-17T06:12:04.431Z,20.92
2022-08-17T06:12:37.546Z,21.45
2022-08-17T06:13:18.824Z,20.38
2022-08-17T06:13:53.391Z,20.90
2022-08-17T06:14:36.057Z,20.60
2022-08-17T06:15:11.065Z,21.13
2022-08-17T06:15:55.329Z,20.30
2022-08-17T06:16:35.480Z,21.63
2022-08-17T06:17:10.230Z,20.50
2022-08-17T06:17:42.917Z,18.75
2022-08-17T06:18:19.037Z,20.80
2022-08-17T06:19:02.365Z,19.92
2022-08-17T06:19:39.540Z,19.38
2022-08-17T06:20:13.578Z,18.33
2022-08-17T06:20:50.043Z,19.25
2022-08-17T06:21:24.198Z,19.08
2022-08-17T06:22:06.214Z,20.02
2022-08-17T06:22:41.349Z,19.48
2022-08-17T06:23:18.268Z,19.00
2022-08-17T06:23:50.248Z,19.42
2022-08-17T06:24:34.506Z,18.65
2022-08-17T06:25:12.422Z,19.05
2022-08-17T06:25:47.040Z,18.23
2022-08-17T06:26:25.808Z,19.08
2022-08-17T06:27:07.632Z,18.55
2022-08-17T06:27:48.582Z,18.30
2022-08-17T06:28:36.061Z,18.85
2022-08-17T06:29:20.222Z,17.80
2022-08-17T06:30:00.196Z,18.15
2022-08-17T06:30:57.466Z,18.10
2022-08-17T06:31:31.259Z,17.92
2022-08-17T06:32:04.482Z,18.75
2022-08-17T06:32:38.193Z,18.42
2022-08-17T06:33:15.918Z,18.58
2022-08-17T06:33:48.651Z,18.17
2022-08-17T06:34:21.687Z,17.50
2022-08-17T06:34:53.879Z,17.50
2022-08-17T06:35:32.073Z,16.75
2022-08-17T06:36:09.597Z,17.90
2022-08-17T06:36:42.185Z,17.48
2022-08-17T06:37:29.937Z,18.77
2022-08-17T06:38:37.007Z,16.58
2022-08-17T06:39:29.577Z,15.57
2022-08-17T06:40:07.781Z,16.67
2022-08-17T06:40:50.676Z,17.15
2022-08-17T06:41:31.740Z,16.98
2022-08-17T06:43:00.849Z,17.80
2022-08-17T06:43:32.727Z,16.30
2022-08-17T06:44:12.713Z,17.00
2022-08-17T06:45:04.882Z,15.57
2022-08-17T06:45:43.281Z,15.70
2022-08-17T06:46:15.237Z,16.40
2022-08-17T06:46:49.544Z,17.25
2022-08-17T06:47:40.075Z,17.77
2022-08-17T06:48:26.145Z,16.98
2022-08-17T06:49:17.278Z,16.30
2022-08-17T06:50:03.071Z,15.68
2022-08-17T06:50:40.669Z,17.08
2022-08-17T06:51:35.447Z,14.70
2022-08-17T06:52:42.315Z,15.73
2022-08-17T06:53:25.362Z,15.18
2022-08-17T06:54:05.518Z,15.55
2022-08-17T06:54:56.251Z,16.30
2022-08-17T06:55:35.791Z,14.32
2022-08-17T06:56:11.184Z,15.90
2022-08-17T06:56:55.449Z,13.27
2022-08-17T06:57:37.902Z,15.55
2022-08-17T06:58:16.702Z,15.32
2022-08-17T06:58:49.541Z,15.30
2022-08-17T06:59:54.501Z,14.57
2022-08-17T07:00:23.150Z,15.07
2022-08-17T07:00:59.068Z,15.00
2022-08-17T07:01:33.413Z,14.35
2022-08-17T07:02:06.899Z,15.25
2022-08-17T07:02:57.400Z,15.43
2022-08-17T07:03:37.860Z,14.88
2022-08-17T07:04:13.135Z,14.90
2022-08-17T07:04:45.746Z,14.02
2022-08-17T07:05:20.476Z,14.10
2022-08-17T07:06:01.199Z,15.95
2022-08-17T07:06:37.785Z,15.52
2022-08-17T07:07:29.989Z,15.00
2022-08-17T07:08:01.958Z,14.50
2022-08-17T07:08:38.004Z,14.90
2022-08-17T07:09:21.524Z,14.18
2022-08-17T07:09:54.427Z,14.75
2022-08-17T07:10:27.522Z,13.95
2022-08-17T07:11:13.014Z,13.43
2022-08-17T07:11:48.011Z,14.32
2022-08-17T07:12:22.588Z,13.45
2022-08-17T07:12:58.193Z,13.98
2022-08-17T07:13:42.123Z,13.50
2022-08-17T07:14:32.593Z,14.30
2022-08-17T07:15:05.526Z,14.35
2022-08-17T07:15:42.283Z,13.93
2022-08-17T07:16:26.151Z,13.98
2022-08-17T07:17:01.962Z,13.98
2022-08-17T07:17:46.460Z,12.88
2022-08-17T07:18:26.514Z,13.73
2022-08-17T07:19:00.022Z,13.30
2022-08-17T07:19:32.910Z,13.55
2022-08-17T07:20:08.591Z,13.45
2022-08-17T07:20:43.457Z,13.25
2022-08-17T07:21:34.250Z,13.55
2022-08-17T07:22:21.365Z,13.40
2022-08-17T07:23:01.989Z,13.75
2022-08-17T07:23:44.545Z,12.95
2022-08-17T07:24:43.324Z,14.40
2022-08-17T07:25:18.470Z,13.50
2022-08-17T07:25:52.988Z,12.98
2022-08-17T07:26:25.019Z,12.80
2022-08-17T07:27:04.690Z,14.13
2022-08-17T07:27:38.925Z,13.38
2022-08-17T07:28:13.006Z,13.23
2022-08-17T07:28:45.140Z,14.05
2022-08-17T07:29:17.951Z,12.88
2022-08-17T07:29:56.865Z,13.13
2022-08-17T07:30:51.060Z,13.52
2022-08-17T07:31:24.962Z,12.73
2022-08-17T07:31:57.423Z,13.52
2022-08-17T07:32:31.723Z,13.32
2022-08-17T07:33:03.787Z,13.15
2022-08-17T07:33:36.851Z,11.20
2022-08-17T07:34:14.478Z,12.70
2022-08-17T07:35:07.466Z,12.15
2022-08-17T07:35:44.121Z,12.30
2022-08-17T07:36:29.571Z,13.10
2022-08-17T07:37:05.329Z,12.75
2022-08-17T07:37:39.082Z,13.10
2022-08-17T07:38:24.419Z,14.05
2022-08-17T07:38:58.633Z,12.95
2022-08-17T07:39:31.190Z,12.63
2022-08-17T07:40:21.116Z,11.60
2022-08-17T07:41:05.910Z,12.02
2022-08-17T07:41:53.378Z,12.73
2022-08-17T07:42:30.853Z,11.68
2022-08-17T07:43:14.038Z,13.30
2022-08-17T07:43:54.291Z,12.88
2022-08-17T07:44:26.534Z,13.77
2022-08-17T07:45:18.653Z,12.57
2022-08-17T07:46:18.490Z,12.45
2022-08-17T07:47:10.675Z,12.48
2022-08-17T07:48:07.651Z,13.35
2022-08-17T07:48:41.970Z,13.00
2022-08-17T07:49:14.040Z,12.98
2022-08-17T07:49:46.432Z,11.98
2022-08-17T07:50:26.393Z,12.50
2022-08-17T07:51:00.178Z,12.30
2022-08-17T07:51:37.679Z,13.23
2022-08-17T07:52:47.795Z,12.05
2022-08-17T07:53:35.725Z,11.45
2022-08-17T07:54:18.448Z,11.20
2022-08-17T07:54:50.437Z,12.02
2022-08-17T07:55:26.989Z,11.45
2022-08-17T07:55:58.948Z,11.95
2022-08-17T07:56:37.322Z,11.75
2022-08-17T07:57:12.781Z,10.70